Weather observations for the past three days for
Junction, Kimble County Airport
Imperial (Metric)
Date Time (cdt) Wind (mph) Vis. (mi.) Weather Sky Cond. Temperature (ºF) Relative Humidity Wind Chill (°F) Heat Index (°F) Pressure Precipitation (in)
Air Dwpt 6 hour altimeter (in) sea level (mb) 1 hr 3 hr 6 hr
Max. Min.
02 08:51 Calm 10.00 Fair CLR 78.1 69.1 74% 80 30.06 1013.9
02 06:51 Calm 10.00 A Few Clouds FEW100 73 66.9 79 72 81% 30.03 1012.9
02 05:51 Calm 10.00 Fair CLR 75.9 66.9 74% 77 30.03 1012.7
02 04:51 SE 5 10.00 Fair CLR 75.9 66.9 74% 77 30.02 1012.5
02 03:51 SE 6 10.00 Fair CLR 77 66.9 71% 79 30.03 1012.6
02 02:51 S 5 10.00 Fair CLR 79 64 60% 81 30.02 1012.5
02 01:51 NE 5 10.00 Fair CLR 75.9 63 64% 78 30.02 1012.6
02 00:51 N 3 10.00 Fair CLR 77 64 97 77 64% 79 30.02 1012.5
01 23:51 Calm 10.00 Fair CLR 82 63 53% 83 30.02 1012.4
01 22:51 Calm 10.00 Fair CLR 82.9 63 51% 84 30.01 1012.3
01 21:51 Calm 10.00 A Few Clouds FEW100 84.9 62.1 46% 85 29.99 1011.6
01 20:51 E 6 10.00 Fair CLR 86 63 46% 87 29.96 1010.5
01 19:51 SE 6 10.00 Fair CLR 91 62.1 38% 92 29.94 1010.1
01 18:51 SE 10 10.00 Fair CLR 97 61 100 93 30% 98 29.94 1009.8
01 17:51 SE 9 10.00 Fair CLR 98.1 61 29% 99 29.94 1009.5
01 16:51 Vrbl 3 10.00 Partly Cloudy SCT085 99 62.1 30% 100 29.94 1009.7
01 15:51 SE 6 10.00 A Few Clouds FEW080 99 63 31% 101 29.97 1010.7
01 14:51 SE 8 G 16 10.00 Fair CLR 97 64 34% 99 30 1011.7
01 13:51 E 8 10.00 Fair CLR 95 64.9 37% 98 30.02 1012.4
01 12:51 Calm 10.00 Fair CLR 93.9 64.9 95 71.1 38% 96 30.05 1013.4
01 11:51 Vrbl 5 10.00 Fair CLR 90 64.9 44% 92 30.06 1014.0
01 10:51 Vrbl 5 10.00 Fair CLR 86 68 55% 89 30.08 1014.4
01 09:51 S 3 10.00 Fair CLR 81 70 69% 84 30.08 1014.7
01 08:51 Calm 10.00 Fair CLR 78.1 71.1 79% 80 30.09 1014.9
01 07:51 Calm 10.00 Fair CLR 73 69.1 87% 30.08 1014.7
01 06:51 E 3 10.00 Fair CLR 73 68 82 73 84% 30.06 1013.8
01 05:51 E 3 10.00 Fair CLR 75.9 68 77% 77 30.06 1013.8
01 04:51 E 5 10.00 Fair CLR 75 68 79% 76 30.05 1013.5
01 03:51 E 5 10.00 Fair CLR 75.9 68 77% 77 30.05 1013.4
01 02:51 SE 5 10.00 Fair CLR 78.1 68 71% 80 30.04 1013.1
01 01:51 E 5 10.00 Fair CLR 80.1 66.9 64% 82 30.04 1013.1
01 00:51 SE 8 10.00 Fair CLR 82 66 93 79 58% 84 30.03 1012.8
31 23:51 E 3 10.00 Fair CLR 80.1 64.9 60% 82 30.01 1012.3
31 22:51 SE 7 10.00 Fair CLR 84.9 64.9 51% 87 30.01 1012.1
31 21:51 SE 8 10.00 Fair CLR 84.9 64 50% 86 29.99 1011.7
31 20:51 SE 8 10.00 Fair CLR 88 64 45% 89 29.97 1011.0
31 19:51 SE 8 10.00 A Few Clouds FEW095 91 64 41% 93 29.96 1010.4
31 18:51 SE 10 10.00 A Few Clouds FEW110 93 64 99 93 38% 95 29.94 1010.0
31 17:51 SE 10 G 21 10.00 Fair CLR 95 64.9 37% 98 29.94 1009.8
31 16:51 SE 12 G 22 10.00 A Few Clouds FEW080 97 64 34% 99 29.95 1010.1
31 15:51 SE 9 G 20 10.00 Mostly Cloudy SCT080 BKN095 BKN110 97 64 34% 99 29.97 1010.8
31 14:51 S 8 10.00 A Few Clouds FEW075 98.1 64.9 34% 101 30 1011.6
31 13:51 SE 7 10.00 Mostly Cloudy SCT075 BKN090 93 64.9 40% 95 30.02 1012.4
31 12:51 Calm 10.00 Fair CLR 93.9 66 93.9 73.9 40% 97 30.04 1013.1
31 11:51 Calm 10.00 Fair CLR 91 68 47% 95 30.06 1013.8
31 10:51 Vrbl 5 10.00 Fair CLR 88 71.1 57% 94 30.06 1013.9
31 09:51 Calm 10.00 Fair CLR 82 72 72% 87 30.06 1013.9
31 08:51 Calm 10.00 Fair CLR 78.1 72 82% 80 30.06 1014.0
31 07:51 Calm 10.00 Fair CLR 75 72 90% 74 30.05 1013.5
31 06:51 SE 5 10.00 Fair CLR 73.9 71.1 82.9 73.9 91% 30.03 1013.0
31 05:51 Calm 10.00 Fair CLR 73.9 70 88% 30.03 1012.9
31 04:51 S 5 10.00 Fair CLR 75.9 70 82% 77 30.03 1012.8
31 03:51 S 7 10.00 Fair CLR 78.1 69.1 74% 80 30.03 1012.6
31 02:51 S 3 10.00 Fair CLR 79 70 74% 82 30.03 1012.6
31 01:51 S 7 G 18 10.00 Fair CLR 81 70 69% 84 30.02 1012.4
31 00:51 S 13 G 23 10.00 Fair CLR 82.9 69.1 96.1 79 63% 87 30.01 1012.0
30 23:51 NW 5 10.00 Fair CLR 79 64 60% 81 30 1011.9
30 22:51 Calm 10.00 Fair CLR 82 64 55% 84 30 1011.8
30 21:51 S 6 10.00 Fair CLR 84.9 63 48% 86 29.99 1011.5
30 20:51 SE 10 G 20 10.00 Fair CLR 89.1 64 43% 90 29.96 1010.6
30 19:51 SE 13 10.00 Fair CLR 91 64.9 42% 93 29.95 1010.3
30 18:51 SE 9 G 21 10.00 Partly Cloudy SCT090 95 62.1 99 93 34% 96 29.94 1009.7
30 17:51 S 10 10.00 Fair CLR 97 62.1 32% 98 29.93 1009.6
30 16:51 E 9 10.00 Fair CLR 97 60.1 29% 97 29.94 1009.6
30 15:51 SE 12 G 16 10.00 Mostly Cloudy BKN085 98.1 61 29% 99 29.96 1010.3
30 14:51 Calm 10.00 A Few Clouds FEW080 97 62.1 32% 98 29.99 1011.4
30 13:51 S 10 10.00 A Few Clouds FEW070 96.1 63 34% 98 30.02 1012.2
30 12:51 S 9 10.00 Fair CLR 93.9 66 93.9 71.1 40% 97 30.05 1013.4
30 11:51 S 7 10.00 Fair CLR 91 66.9 45% 94 30.07 1014.3
30 10:51 SW 8 10.00 Fair CLR 86 70 59% 91 30.08 1014.4
30 09:51 S 5 10.00 Fair CLR 82 72 72% 87 30.08 1014.5
Date Time (cdt) Wind (mph) Vis. (mi.) Weather Sky Cond. Air Dwpt Max. Min. Relative Humidity Wind Chill (°F) Heat Index (°F) altimeter (in) sea level (mb) 1 hr 3 hr 6 hr
6 hour
Temperature (ºF) Pressure Precipitation (in)